createdAt,value
2018-07-06T00:00:17.797Z,18.58
2018-07-06T00:01:17.784Z,18.72
2018-07-06T00:02:17.779Z,18.55
2018-07-06T00:03:17.826Z,18.55
2018-07-06T00:04:17.751Z,18.60
2018-07-06T00:05:17.738Z,18.57
2018-07-06T00:06:17.728Z,18.55
2018-07-06T00:07:17.717Z,18.52
2018-07-06T00:08:17.794Z,18.52
2018-07-06T00:09:17.699Z,18.51
2018-07-06T00:10:17.681Z,18.37
2018-07-06T00:11:17.673Z,18.45
2018-07-06T00:12:17.661Z,18.45
2018-07-06T00:13:17.658Z,18.39
2018-07-06T00:14:17.712Z,18.39
2018-07-06T00:15:17.634Z,18.37
2018-07-06T00:16:17.620Z,18.35
2018-07-06T00:17:17.611Z,18.33
2018-07-06T00:18:17.591Z,18.29
2018-07-06T00:19:17.653Z,18.42
2018-07-06T00:20:17.578Z,18.41
2018-07-06T00:21:17.557Z,18.42
2018-07-06T00:22:17.544Z,18.36
2018-07-06T00:23:17.536Z,18.32
2018-07-06T00:24:17.602Z,18.37
2018-07-06T00:25:17.518Z,18.36
2018-07-06T00:26:17.506Z,18.35
2018-07-06T00:27:17.497Z,18.27
2018-07-06T00:28:17.476Z,18.32
2018-07-06T00:29:17.528Z,18.23
2018-07-06T00:30:17.459Z,18.17
2018-07-06T00:31:17.443Z,18.27
2018-07-06T00:32:17.440Z,18.15
2018-07-06T00:33:17.418Z,18.18
2018-07-06T00:34:17.482Z,18.15
2018-07-06T00:35:17.397Z,17.99
2018-07-06T00:36:17.398Z,17.95
2018-07-06T00:37:17.377Z,17.87
2018-07-06T00:38:17.366Z,17.89
2018-07-06T00:39:17.421Z,17.92
2018-07-06T00:40:17.346Z,17.92
2018-07-06T00:41:17.330Z,17.93
2018-07-06T00:42:17.324Z,17.87
2018-07-06T00:43:17.320Z,17.81
2018-07-06T00:44:17.365Z,17.86
2018-07-06T00:45:17.283Z,17.82
2018-07-06T00:46:17.278Z,17.89
2018-07-06T00:47:17.271Z,17.84
2018-07-06T00:48:17.256Z,17.77
2018-07-06T00:49:17.306Z,17.79
2018-07-06T00:50:17.234Z,17.75
2018-07-06T00:51:17.222Z,17.70
2018-07-06T00:52:17.208Z,17.68
2018-07-06T00:53:17.197Z,17.68
2018-07-06T00:54:17.250Z,17.70
2018-07-06T00:55:17.177Z,17.71
2018-07-06T00:56:17.167Z,17.66
2018-07-06T00:57:17.151Z,17.66
2018-07-06T00:58:17.143Z,17.58
2018-07-06T00:59:17.203Z,17.68
2018-07-06T01:00:17.118Z,17.63
2018-07-06T01:01:17.110Z,17.52
2018-07-06T01:02:17.099Z,17.55
2018-07-06T01:03:17.084Z,17.64
2018-07-06T01:04:17.134Z,17.62
2018-07-06T01:05:17.064Z,17.58
2018-07-06T01:06:17.051Z,17.58
2018-07-06T01:07:17.038Z,17.55
2018-07-06T01:08:17.030Z,17.55
2018-07-06T01:09:17.083Z,17.58
2018-07-06T01:10:17.023Z,17.58
2018-07-06T01:11:16.991Z,17.66
2018-07-06T01:12:16.988Z,17.68
2018-07-06T01:13:16.976Z,17.59
2018-07-06T01:14:17.020Z,17.63
2018-07-06T01:15:16.959Z,17.58
2018-07-06T01:16:16.940Z,17.59
2018-07-06T01:17:16.926Z,17.54
2018-07-06T01:18:16.915Z,17.52
2018-07-06T01:19:16.972Z,17.51
2018-07-06T01:20:16.897Z,17.64
2018-07-06T01:21:16.883Z,17.49
2018-07-06T01:22:16.869Z,17.44
2018-07-06T01:23:16.859Z,17.48
2018-07-06T01:24:16.918Z,17.41
2018-07-06T01:25:16.842Z,17.46
2018-07-06T01:26:16.822Z,17.48
2018-07-06T01:27:16.823Z,17.48
2018-07-06T01:28:16.803Z,17.40
2018-07-06T01:29:16.859Z,17.43
2018-07-06T01:30:16.783Z,17.48
2018-07-06T01:31:16.769Z,17.36
2018-07-06T01:32:16.760Z,17.43
2018-07-06T01:33:16.749Z,17.25
2018-07-06T01:34:16.802Z,17.31
2018-07-06T01:35:16.729Z,17.25
2018-07-06T01:36:16.716Z,17.25
2018-07-06T01:37:16.700Z,17.26
2018-07-06T01:38:16.698Z,17.23
2018-07-06T01:39:16.748Z,17.22
2018-07-06T01:40:16.675Z,17.23
2018-07-06T01:41:16.665Z,17.25
2018-07-06T01:42:16.654Z,17.22
2018-07-06T01:43:16.643Z,17.22
2018-07-06T01:44:16.690Z,17.23
2018-07-06T01:45:16.614Z,17.23
2018-07-06T01:46:16.604Z,17.14
2018-07-06T01:47:16.595Z,17.14
2018-07-06T01:48:16.582Z,17.12
2018-07-06T01:49:16.635Z,17.19
2018-07-06T01:50:16.565Z,17.11
2018-07-06T01:51:16.545Z,17.04
2018-07-06T01:52:16.545Z,17.07
2018-07-06T01:53:16.528Z,17.04
2018-07-06T01:54:16.514Z,17.01
2018-07-06T01:55:16.563Z,17.06
2018-07-06T01:56:16.487Z,17.00
2018-07-06T01:57:16.486Z,17.01
2018-07-06T01:58:16.477Z,17.00
2018-07-06T01:59:16.462Z,16.93
2018-07-06T02:00:16.512Z,16.83
2018-07-06T02:01:16.448Z,16.78
2018-07-06T02:02:16.434Z,16.86
2018-07-06T02:03:16.416Z,16.88
2018-07-06T02:04:16.410Z,16.82
2018-07-06T02:05:16.454Z,16.75
2018-07-06T02:06:16.382Z,16.76
2018-07-06T02:07:16.375Z,16.82
2018-07-06T02:08:16.361Z,16.79
2018-07-06T02:09:16.355Z,16.73
2018-07-06T02:10:16.406Z,16.73
2018-07-06T02:11:16.328Z,16.76
2018-07-06T02:12:16.322Z,16.76
2018-07-06T02:13:16.310Z,16.76
2018-07-06T02:14:16.296Z,16.73
2018-07-06T02:15:16.358Z,16.71
2018-07-06T02:16:16.278Z,16.75
2018-07-06T02:17:16.263Z,16.66
2018-07-06T02:18:16.261Z,16.68
2018-07-06T02:19:16.245Z,16.67
2018-07-06T02:20:16.299Z,16.70
2018-07-06T02:21:16.226Z,16.56
2018-07-06T02:22:16.223Z,16.61
2018-07-06T02:23:16.197Z,16.60
2018-07-06T02:24:16.188Z,16.53
2018-07-06T02:25:16.248Z,16.53
2018-07-06T02:26:16.164Z,16.52
2018-07-06T02:27:16.161Z,16.52
2018-07-06T02:28:16.145Z,16.45
2018-07-06T02:29:16.129Z,16.39
2018-07-06T02:30:16.189Z,16.35
2018-07-06T02:31:16.110Z,16.39
2018-07-06T02:32:16.104Z,16.42
2018-07-06T02:33:16.088Z,16.39
2018-07-06T02:34:16.076Z,16.35
2018-07-06T02:35:16.144Z,16.42
2018-07-06T02:36:16.051Z,16.43
2018-07-06T02:37:16.047Z,16.35
2018-07-06T02:38:16.044Z,16.35
2018-07-06T02:39:16.012Z,16.34
2018-07-06T02:40:16.074Z,16.33
2018-07-06T02:41:16.007Z,16.27
2018-07-06T02:42:15.994Z,16.35
2018-07-06T02:43:15.979Z,16.34
2018-07-06T02:44:15.966Z,16.38
2018-07-06T02:45:16.017Z,16.35
2018-07-06T02:46:15.945Z,16.38
2018-07-06T02:47:15.933Z,16.27
2018-07-06T02:48:15.919Z,16.21
2018-07-06T02:49:15.927Z,16.28
2018-07-06T02:50:15.972Z,16.27
2018-07-06T02:51:15.894Z,16.31
2018-07-06T02:52:15.882Z,16.28
2018-07-06T02:53:15.876Z,16.24
2018-07-06T02:54:15.855Z,16.20
2018-07-06T02:55:15.986Z,16.25
2018-07-06T02:56:15.837Z,16.12
2018-07-06T02:57:15.825Z,16.09
2018-07-06T02:58:15.815Z,16.09
2018-07-06T02:59:15.828Z,16.08
2018-07-06T03:00:15.865Z,16.08
2018-07-06T03:01:15.780Z,16.09
2018-07-06T03:02:15.766Z,16.08
2018-07-06T03:03:15.763Z,16.02
2018-07-06T03:04:15.755Z,16.07
2018-07-06T03:05:15.797Z,16.02
2018-07-06T03:06:15.723Z,15.97
2018-07-06T03:07:15.713Z,16.02
2018-07-06T03:08:15.714Z,15.93
2018-07-06T03:09:15.682Z,15.97
2018-07-06T03:10:15.748Z,15.97
2018-07-06T03:11:15.676Z,15.93
2018-07-06T03:12:15.669Z,15.92
2018-07-06T03:13:15.652Z,15.93
2018-07-06T03:14:15.639Z,15.89
2018-07-06T03:15:15.680Z,15.83
2018-07-06T03:16:15.615Z,15.82
2018-07-06T03:17:15.602Z,15.84
2018-07-06T03:18:15.602Z,15.84
2018-07-06T03:19:15.599Z,15.87
2018-07-06T03:20:15.641Z,15.82
2018-07-06T03:21:15.563Z,15.78
2018-07-06T03:22:15.552Z,15.84
2018-07-06T03:23:15.543Z,15.78
2018-07-06T03:24:15.531Z,15.86
2018-07-06T03:25:15.579Z,15.71
2018-07-06T03:26:15.513Z,15.72
2018-07-06T03:27:15.495Z,15.80
2018-07-06T03:28:15.500Z,15.71
2018-07-06T03:29:15.473Z,15.65
2018-07-06T03:30:15.544Z,15.68
2018-07-06T03:31:15.452Z,15.75
2018-07-06T03:32:15.442Z,15.76
2018-07-06T03:33:15.434Z,15.74
2018-07-06T03:34:15.419Z,15.76
2018-07-06T03:35:15.487Z,15.75
2018-07-06T03:36:15.398Z,15.74
2018-07-06T03:37:15.391Z,15.78
2018-07-06T03:38:15.383Z,15.71
2018-07-06T03:39:15.369Z,15.76
2018-07-06T03:40:15.356Z,15.74
2018-07-06T03:41:15.401Z,15.78
2018-07-06T03:42:15.332Z,15.68
2018-07-06T03:43:15.314Z,15.75
2018-07-06T03:44:15.312Z,15.82
2018-07-06T03:45:15.291Z,15.74
2018-07-06T03:46:15.363Z,15.67
2018-07-06T03:47:15.279Z,15.80
2018-07-06T03:48:15.272Z,15.80
2018-07-06T03:49:15.263Z,15.76
2018-07-06T03:50:15.247Z,15.80
2018-07-06T03:51:15.304Z,15.69
2018-07-06T03:52:15.222Z,15.76
2018-07-06T03:53:15.216Z,15.76
2018-07-06T03:54:15.197Z,15.78
2018-07-06T03:55:15.191Z,15.68
2018-07-06T03:56:15.248Z,15.75
2018-07-06T03:57:15.166Z,15.72
2018-07-06T03:58:15.156Z,15.71
2018-07-06T03:59:15.144Z,15.76
2018-07-06T04:00:15.135Z,15.65
2018-07-06T04:01:15.196Z,15.76
2018-07-06T04:02:15.116Z,15.78
2018-07-06T04:03:15.101Z,15.82
2018-07-06T04:04:15.087Z,15.84
2018-07-06T04:05:15.076Z,15.86
2018-07-06T04:06:15.149Z,15.84
2018-07-06T04:07:15.055Z,15.78
2018-07-06T04:08:15.048Z,15.82
2018-07-06T04:09:15.055Z,15.82
2018-07-06T04:10:15.023Z,15.80
2018-07-06T04:11:15.073Z,15.84
2018-07-06T04:12:15.007Z,15.84
2018-07-06T04:13:15.120Z,15.96
2018-07-06T04:14:14.983Z,15.90
2018-07-06T04:15:14.976Z,15.82
2018-07-06T04:16:15.029Z,15.89
2018-07-06T04:17:14.946Z,15.94
2018-07-06T04:18:14.936Z,15.86
2018-07-06T04:19:14.925Z,15.96
2018-07-06T04:20:14.915Z,15.93
2018-07-06T04:21:14.971Z,15.97
2018-07-06T04:22:14.893Z,15.90
2018-07-06T04:23:14.884Z,15.94
2018-07-06T04:24:14.877Z,16.00
2018-07-06T04:25:14.860Z,16.02
2018-07-06T04:26:14.920Z,16.08
2018-07-06T04:27:14.836Z,16.08
2018-07-06T04:28:14.828Z,16.12
2018-07-06T04:29:14.822Z,16.20
2018-07-06T04:30:14.816Z,16.15
2018-07-06T04:31:14.859Z,16.24
2018-07-06T04:32:14.787Z,16.27
2018-07-06T04:33:14.773Z,16.23
2018-07-06T04:34:14.764Z,16.31
2018-07-06T04:35:14.750Z,16.31
2018-07-06T04:36:14.801Z,16.41
2018-07-06T04:37:14.736Z,16.43
2018-07-06T04:38:14.714Z,16.46
2018-07-06T04:39:14.705Z,16.43
2018-07-06T04:40:14.696Z,16.56
2018-07-06T04:41:14.740Z,16.58
2018-07-06T04:42:14.666Z,16.56
2018-07-06T04:43:14.665Z,16.60
2018-07-06T04:44:14.696Z,16.70
2018-07-06T04:45:14.640Z,16.64
2018-07-06T04:46:14.696Z,16.64
2018-07-06T04:47:14.626Z,16.71
2018-07-06T04:48:14.608Z,16.76
2018-07-06T04:49:14.600Z,16.71
2018-07-06T04:50:14.585Z,16.83
2018-07-06T04:51:14.655Z,16.86
2018-07-06T04:52:14.567Z,16.73
2018-07-06T04:53:14.557Z,16.83
2018-07-06T04:54:14.540Z,16.82
2018-07-06T04:55:14.532Z,16.88
2018-07-06T04:56:14.585Z,16.88
2018-07-06T04:57:14.510Z,16.96
2018-07-06T04:58:14.502Z,16.93
2018-07-06T04:59:14.538Z,16.98
2018-07-06T05:00:14.483Z,17.01
2018-07-06T05:01:14.526Z,17.06
2018-07-06T05:02:14.451Z,17.08
2018-07-06T05:03:14.443Z,17.15
2018-07-06T05:04:14.445Z,17.07
2018-07-06T05:05:14.424Z,17.08
2018-07-06T05:06:14.488Z,17.14
2018-07-06T05:07:14.396Z,17.04
2018-07-06T05:08:14.388Z,17.04
2018-07-06T05:09:14.378Z,17.14
2018-07-06T05:10:14.374Z,17.08
2018-07-06T05:11:14.429Z,17.04
2018-07-06T05:12:14.351Z,17.04
2018-07-06T05:13:14.332Z,17.07
2018-07-06T05:14:14.322Z,17.12
2018-07-06T05:15:14.312Z,17.12
2018-07-06T05:16:14.372Z,17.12
2018-07-06T05:17:14.292Z,17.18
2018-07-06T05:18:14.278Z,17.21
2018-07-06T05:19:14.273Z,17.23
2018-07-06T05:20:14.266Z,17.23
2018-07-06T05:21:14.249Z,17.28
2018-07-06T05:22:14.311Z,17.37
2018-07-06T05:23:14.233Z,17.37
2018-07-06T05:24:14.210Z,17.46
2018-07-06T05:25:14.206Z,17.43
2018-07-06T05:26:14.190Z,17.41
2018-07-06T05:27:14.262Z,17.44
2018-07-06T05:28:14.171Z,17.44
2018-07-06T05:29:14.163Z,17.51
2018-07-06T05:30:14.149Z,17.49
2018-07-06T05:31:14.135Z,17.44
2018-07-06T05:32:14.192Z,17.49
2018-07-06T05:33:14.123Z,17.62
2018-07-06T05:34:14.105Z,17.54
2018-07-06T05:35:14.092Z,17.64
2018-07-06T05:36:14.089Z,17.68
2018-07-06T05:37:14.135Z,17.71
2018-07-06T05:38:14.061Z,17.72
2018-07-06T05:39:14.053Z,17.81
2018-07-06T05:40:14.045Z,17.82
2018-07-06T05:41:14.025Z,17.75
2018-07-06T05:42:14.086Z,17.71
2018-07-06T05:43:14.006Z,17.63
2018-07-06T05:44:13.998Z,17.63
2018-07-06T05:45:13.992Z,17.58
2018-07-06T05:46:13.983Z,17.59
2018-07-06T05:47:14.036Z,17.58
2018-07-06T05:48:13.945Z,17.59
2018-07-06T05:49:13.939Z,17.59
2018-07-06T05:50:13.933Z,17.58
2018-07-06T05:51:13.912Z,17.63
2018-07-06T05:52:13.967Z,17.68
2018-07-06T05:53:13.899Z,17.81
2018-07-06T05:54:13.879Z,17.84
2018-07-06T05:55:13.868Z,17.79
2018-07-06T05:56:13.862Z,17.92
2018-07-06T05:57:13.939Z,17.90
2018-07-06T05:58:13.838Z,17.90
2018-07-06T05:59:13.882Z,17.92
2018-07-06T06:00:13.819Z,17.93
2018-07-06T06:01:13.811Z,17.89
2018-07-06T06:02:13.877Z,17.93
2018-07-06T06:03:13.785Z,17.95
2018-07-06T06:04:13.770Z,18.03
2018-07-06T06:05:13.759Z,18.14
2018-07-06T06:06:13.750Z,18.12
2018-07-06T06:07:13.809Z,18.03
2018-07-06T06:08:13.729Z,18.12
2018-07-06T06:09:13.715Z,17.96
2018-07-06T06:10:13.707Z,17.90
2018-07-06T06:11:13.695Z,17.93
2018-07-06T06:12:13.774Z,17.89
2018-07-06T06:13:13.674Z,17.79
2018-07-06T06:14:13.670Z,17.75
2018-07-06T06:15:13.658Z,17.79
2018-07-06T06:16:13.638Z,17.78
2018-07-06T06:17:13.693Z,17.70
2018-07-06T06:18:13.616Z,17.74
2018-07-06T06:19:13.605Z,17.64
2018-07-06T06:20:13.589Z,17.68
2018-07-06T06:21:13.570Z,17.68
2018-07-06T06:22:13.649Z,17.70
2018-07-06T06:23:13.564Z,17.72
2018-07-06T06:24:13.552Z,17.75
2018-07-06T06:25:13.536Z,17.86
2018-07-06T06:26:13.533Z,17.99
2018-07-06T06:27:13.591Z,17.84
2018-07-06T06:28:13.499Z,18.02
2018-07-06T06:29:13.493Z,18.10
2018-07-06T06:30:13.483Z,18.20
2018-07-06T06:31:13.468Z,18.33
2018-07-06T06:32:13.526Z,18.33
2018-07-06T06:33:13.506Z,18.39
2018-07-06T06:34:13.444Z,18.44
2018-07-06T06:35:13.430Z,18.52
2018-07-06T06:36:13.413Z,18.55
2018-07-06T06:37:13.484Z,18.45
2018-07-06T06:38:13.392Z,18.58
2018-07-06T06:39:13.381Z,18.70
2018-07-06T06:40:13.371Z,18.69
2018-07-06T06:41:13.369Z,18.73
2018-07-06T06:42:13.415Z,18.70
2018-07-06T06:43:13.341Z,18.67
2018-07-06T06:44:13.329Z,18.65
2018-07-06T06:45:13.322Z,18.67
2018-07-06T06:46:13.301Z,18.70
2018-07-06T06:47:13.376Z,18.69
2018-07-06T06:48:13.294Z,18.70
2018-07-06T06:49:13.280Z,18.73
2018-07-06T06:50:13.268Z,18.75
2018-07-06T06:51:13.252Z,18.75
2018-07-06T06:52:13.325Z,18.75
2018-07-06T06:53:13.233Z,18.73
2018-07-06T06:54:13.221Z,18.70
2018-07-06T06:55:13.214Z,18.73
2018-07-06T06:56:13.200Z,18.80
2018-07-06T06:57:13.260Z,18.78
2018-07-06T06:58:13.179Z,18.73
2018-07-06T06:59:13.173Z,18.72
2018-07-06T07:00:13.168Z,18.63
2018-07-06T07:01:13.151Z,18.55
2018-07-06T07:02:13.222Z,18.58
2018-07-06T07:03:13.123Z,18.55
2018-07-06T07:04:13.111Z,18.66
2018-07-06T07:05:13.097Z,18.66
2018-07-06T07:06:13.094Z,18.65
2018-07-06T07:07:13.078Z,18.55
2018-07-06T07:08:13.132Z,18.65
2018-07-06T07:09:13.053Z,18.63
2018-07-06T07:10:13.055Z,18.66
2018-07-06T07:11:13.035Z,18.70
2018-07-06T07:12:13.023Z,18.67
2018-07-06T07:13:13.079Z,18.75
2018-07-06T07:14:13.086Z,18.81
2018-07-06T07:15:13.124Z,18.84
2018-07-06T07:16:12.989Z,18.94
2018-07-06T07:17:12.972Z,18.95
2018-07-06T07:18:13.030Z,18.94
2018-07-06T07:19:12.947Z,18.92
2018-07-06T07:20:12.937Z,18.92
2018-07-06T07:21:12.923Z,18.91
2018-07-06T07:22:12.915Z,18.90
2018-07-06T07:23:12.966Z,19.06
2018-07-06T07:24:12.897Z,19.02
2018-07-06T07:25:13.076Z,19.18
2018-07-06T07:26:12.872Z,19.07
2018-07-06T07:27:12.866Z,19.11
2018-07-06T07:28:13.076Z,19.13
2018-07-06T07:29:12.931Z,19.11
2018-07-06T07:30:12.913Z,19.14
2018-07-06T07:31:12.830Z,19.13
2018-07-06T07:32:12.913Z,19.18
2018-07-06T07:33:13.001Z,19.25
2018-07-06T07:34:12.889Z,19.22
2018-07-06T07:35:12.976Z,19.21
2018-07-06T07:36:12.855Z,19.21
2018-07-06T07:37:12.853Z,19.06
2018-07-06T07:38:12.949Z,19.14
2018-07-06T07:39:12.806Z,19.06
2018-07-06T07:40:12.803Z,19.06
2018-07-06T07:41:12.815Z,19.19
2018-07-06T07:42:12.816Z,19.14
2018-07-06T07:43:12.910Z,19.16
2018-07-06T07:44:12.764Z,19.16
2018-07-06T07:45:12.736Z,19.21
2018-07-06T07:46:12.749Z,19.13
2018-07-06T07:47:12.733Z,19.16
2018-07-06T07:48:12.858Z,19.18
2018-07-06T07:49:12.696Z,19.23
2018-07-06T07:50:12.606Z,19.28
2018-07-06T07:51:12.596Z,19.33
2018-07-06T07:52:12.592Z,19.26
2018-07-06T07:53:12.766Z,19.22
2018-07-06T07:54:12.675Z,19.16
2018-07-06T07:55:12.572Z,19.19
2018-07-06T07:56:12.539Z,19.23
2018-07-06T07:57:12.530Z,19.39
2018-07-06T07:58:12.591Z,19.39
2018-07-06T07:59:12.503Z,19.41
2018-07-06T08:00:12.497Z,19.37
2018-07-06T08:01:12.669Z,19.37
2018-07-06T08:02:12.475Z,19.50
2018-07-06T08:03:12.528Z,19.50
2018-07-06T08:04:12.456Z,19.59
2018-07-06T08:05:12.448Z,19.76
2018-07-06T08:06:12.453Z,19.84
2018-07-06T08:07:12.433Z,20.02
2018-07-06T08:08:12.590Z,20.03
2018-07-06T08:09:12.400Z,19.96
2018-07-06T08:10:12.391Z,19.92
2018-07-06T08:11:12.377Z,19.76
2018-07-06T08:12:12.367Z,19.71
2018-07-06T08:13:12.418Z,19.77
2018-07-06T08:14:12.347Z,19.87
2018-07-06T08:15:12.336Z,19.92
2018-07-06T08:16:12.315Z,20.06
2018-07-06T08:17:12.308Z,19.98
2018-07-06T08:18:12.367Z,20.10
2018-07-06T08:19:12.287Z,20.10
2018-07-06T08:20:12.270Z,20.05
2018-07-06T08:21:12.264Z,20.13
2018-07-06T08:22:12.251Z,20.08
2018-07-06T08:23:12.314Z,20.26
2018-07-06T08:24:12.238Z,20.13
2018-07-06T08:25:12.232Z,20.06
2018-07-06T08:26:12.207Z,19.94
2018-07-06T08:27:12.181Z,19.92
2018-07-06T08:28:12.261Z,19.88
2018-07-06T08:29:12.173Z,19.81
2018-07-06T08:30:12.189Z,19.80
2018-07-06T08:31:12.149Z,19.69
2018-07-06T08:32:12.139Z,19.78
2018-07-06T08:33:12.196Z,19.83
2018-07-06T08:34:12.122Z,19.86
2018-07-06T08:35:12.120Z,19.95
2018-07-06T08:36:12.106Z,20.08
2018-07-06T08:37:12.089Z,20.20
2018-07-06T08:38:12.179Z,20.32
2018-07-06T08:39:12.058Z,20.41
2018-07-06T08:40:12.054Z,20.38
2018-07-06T08:41:12.035Z,20.33
2018-07-06T08:42:12.030Z,20.38
2018-07-06T08:43:12.081Z,20.26
2018-07-06T08:44:11.997Z,20.08
2018-07-06T08:45:11.998Z,20.21
2018-07-06T08:46:11.989Z,20.33
2018-07-06T08:47:11.975Z,20.33
2018-07-06T08:48:11.959Z,20.31
2018-07-06T08:49:12.031Z,20.31
2018-07-06T08:50:11.991Z,20.26
2018-07-06T08:51:11.938Z,20.31
2018-07-06T08:52:11.935Z,20.42
2018-07-06T08:53:11.935Z,20.36
2018-07-06T08:54:12.012Z,20.41
2018-07-06T08:55:11.872Z,20.33
2018-07-06T08:56:11.877Z,20.51
2018-07-06T08:57:11.878Z,20.64
2018-07-06T08:58:11.969Z,20.67
2018-07-06T08:59:11.926Z,20.64
2018-07-06T09:00:11.837Z,20.62
2018-07-06T09:01:11.882Z,20.59
2018-07-06T09:02:11.825Z,20.69
2018-07-06T09:03:11.819Z,20.76
2018-07-06T09:04:11.917Z,20.72
2018-07-06T09:05:11.790Z,20.77
2018-07-06T09:06:11.770Z,20.62
2018-07-06T09:07:11.780Z,20.64
2018-07-06T09:08:11.761Z,20.61
2018-07-06T09:09:11.840Z,20.66
2018-07-06T09:10:11.722Z,20.67
2018-07-06T09:11:11.715Z,20.66
2018-07-06T09:12:11.688Z,20.70
2018-07-06T09:13:11.693Z,20.87
2018-07-06T09:14:11.749Z,20.95
2018-07-06T09:15:11.669Z,20.92
2018-07-06T09:16:11.701Z,20.91
2018-07-06T09:17:11.649Z,20.97
2018-07-06T09:18:11.633Z,20.91
2018-07-06T09:19:11.729Z,20.94
2018-07-06T09:20:11.808Z,20.95
2018-07-06T09:21:11.604Z,20.85
2018-07-06T09:22:11.586Z,20.98
2018-07-06T09:23:11.578Z,20.88
2018-07-06T09:24:11.682Z,20.88
2018-07-06T09:25:11.549Z,20.94
2018-07-06T09:26:11.857Z,20.92
2018-07-06T09:27:11.529Z,20.94
2018-07-06T09:28:11.512Z,20.97
2018-07-06T09:29:11.567Z,21.04
2018-07-06T09:30:11.499Z,20.94
2018-07-06T09:31:11.482Z,20.95
2018-07-06T09:32:11.469Z,20.91
2018-07-06T09:33:11.461Z,20.69
2018-07-06T09:34:11.506Z,20.69
2018-07-06T09:35:11.441Z,20.92
2018-07-06T09:36:11.429Z,20.82
2018-07-06T09:37:11.420Z,20.82
2018-07-06T09:38:11.406Z,20.92
2018-07-06T09:39:11.474Z,20.97
2018-07-06T09:40:11.380Z,20.84
2018-07-06T09:41:11.384Z,20.88
2018-07-06T09:42:11.361Z,21.03
2018-07-06T09:43:11.351Z,21.12
2018-07-06T09:44:11.411Z,21.17
2018-07-06T09:45:11.328Z,21.32
2018-07-06T09:46:11.325Z,21.32
2018-07-06T09:47:11.310Z,21.31
2018-07-06T09:48:11.304Z,21.27
2018-07-06T09:49:11.381Z,21.24
2018-07-06T09:50:11.273Z,21.32
2018-07-06T09:51:11.272Z,21.40
2018-07-06T09:52:11.255Z,21.52
2018-07-06T09:53:11.245Z,21.50
2018-07-06T09:54:11.300Z,21.52
2018-07-06T09:55:11.229Z,21.58
2018-07-06T09:56:11.219Z,21.59
2018-07-06T09:57:11.198Z,21.52
2018-07-06T09:58:11.181Z,21.64
2018-07-06T09:59:11.258Z,21.68
2018-07-06T10:00:11.167Z,21.77
2018-07-06T10:01:11.162Z,21.91
2018-07-06T10:02:11.139Z,22.18
2018-07-06T10:03:11.133Z,22.25
2018-07-06T10:04:11.205Z,22.39
2018-07-06T10:05:11.112Z,22.40
2018-07-06T10:06:11.102Z,22.25
2018-07-06T10:07:11.084Z,22.03
2018-07-06T10:08:11.071Z,21.88
2018-07-06T10:09:11.152Z,21.80
2018-07-06T10:10:11.095Z,21.68
2018-07-06T10:11:11.049Z,21.67
2018-07-06T10:12:11.048Z,21.62
2018-07-06T10:13:11.025Z,21.69
2018-07-06T10:14:11.080Z,21.82
2018-07-06T10:15:11.013Z,21.96
2018-07-06T10:16:10.998Z,22.15
2018-07-06T10:17:10.976Z,22.24
2018-07-06T10:18:10.972Z,22.39
2018-07-06T10:19:11.026Z,22.46
2018-07-06T10:20:10.945Z,22.64
2018-07-06T10:21:10.935Z,22.79
2018-07-06T10:22:10.929Z,22.73
2018-07-06T10:23:10.923Z,22.49
2018-07-06T10:24:10.990Z,22.46
2018-07-06T10:25:10.884Z,22.40
2018-07-06T10:26:10.884Z,22.14
2018-07-06T10:27:10.869Z,22.09
2018-07-06T10:28:10.861Z,22.14
2018-07-06T10:29:10.955Z,22.02
2018-07-06T10:30:10.980Z,22.17
2018-07-06T10:31:10.831Z,22.36
2018-07-06T10:32:10.813Z,22.51
2018-07-06T10:33:10.855Z,22.65
2018-07-06T10:34:10.820Z,22.76
2018-07-06T10:35:10.848Z,22.80
2018-07-06T10:36:10.784Z,22.91
2018-07-06T10:37:10.783Z,23.02
2018-07-06T10:38:10.749Z,23.17
2018-07-06T10:39:10.745Z,22.90
2018-07-06T10:40:11.912Z,22.73
2018-07-06T10:41:10.721Z,22.70
2018-07-06T10:42:10.700Z,22.92
2018-07-06T10:43:10.720Z,22.79
2018-07-06T10:44:10.693Z,22.67
2018-07-06T10:45:10.752Z,22.82
2018-07-06T10:46:10.666Z,22.83
2018-07-06T10:47:10.650Z,22.68
2018-07-06T10:48:10.637Z,22.65
2018-07-06T10:49:10.627Z,22.58
2018-07-06T10:50:10.695Z,22.46
2018-07-06T10:51:10.608Z,22.39
2018-07-06T10:52:10.630Z,22.46
2018-07-06T10:53:10.618Z,22.67
2018-07-06T10:54:10.573Z,22.75
2018-07-06T10:55:10.702Z,22.85
2018-07-06T10:56:10.570Z,22.91
2018-07-06T10:57:10.545Z,23.07
2018-07-06T10:58:10.531Z,22.91
2018-07-06T10:59:10.514Z,22.90
2018-07-06T11:00:10.661Z,22.97
2018-07-06T11:01:10.496Z,23.13
2018-07-06T11:02:10.491Z,23.13
2018-07-06T11:03:10.480Z,23.31
2018-07-06T11:04:10.785Z,23.31
2018-07-06T11:05:10.630Z,23.46
2018-07-06T11:06:10.447Z,23.58
2018-07-06T11:07:10.437Z,23.78
2018-07-06T11:08:10.439Z,23.72
2018-07-06T11:09:10.412Z,23.78
2018-07-06T11:10:10.454Z,23.93
2018-07-06T11:11:10.399Z,23.79
2018-07-06T11:12:10.376Z,23.73
2018-07-06T11:13:10.364Z,23.68
2018-07-06T11:14:10.373Z,23.80
2018-07-06T11:15:10.417Z,23.80
2018-07-06T11:16:10.339Z,23.84
2018-07-06T11:17:10.323Z,23.76
2018-07-06T11:18:10.313Z,23.78
2018-07-06T11:19:10.370Z,23.84
2018-07-06T11:20:10.411Z,24.09
2018-07-06T11:21:10.331Z,24.24
2018-07-06T11:22:10.281Z,24.35
2018-07-06T11:23:10.263Z,24.47
2018-07-06T11:24:10.252Z,24.27
2018-07-06T11:25:10.587Z,24.37
2018-07-06T11:26:10.226Z,24.49
2018-07-06T11:27:10.211Z,24.42
2018-07-06T11:28:10.210Z,24.67
2018-07-06T11:29:10.197Z,24.91
2018-07-06T11:30:10.276Z,24.96
2018-07-06T11:31:10.173Z,24.85
2018-07-06T11:32:10.232Z,24.68
2018-07-06T11:33:10.155Z,24.47
2018-07-06T11:34:10.159Z,24.25
2018-07-06T11:35:10.203Z,24.21
2018-07-06T11:36:10.121Z,24.24
2018-07-06T11:37:10.127Z,24.35
2018-07-06T11:38:10.313Z,24.30
2018-07-06T11:39:10.089Z,24.49
2018-07-06T11:40:10.136Z,24.77
2018-07-06T11:41:10.065Z,25.06
2018-07-06T11:42:10.058Z,25.30
2018-07-06T11:43:10.038Z,25.50
2018-07-06T11:44:10.034Z,25.64
2018-07-06T11:45:10.102Z,25.87
2018-07-06T11:46:10.012Z,26.06
2018-07-06T11:47:10.001Z,26.15
2018-07-06T11:48:09.987Z,26.09
2018-07-06T11:49:09.973Z,26.09
2018-07-06T11:50:10.063Z,26.32
2018-07-06T11:51:09.968Z,26.12
2018-07-06T11:52:09.939Z,25.85
2018-07-06T11:53:09.932Z,26.02
2018-07-06T11:54:09.920Z,25.85
2018-07-06T11:55:10.001Z,25.95
2018-07-06T11:56:09.925Z,25.85
2018-07-06T11:57:09.889Z,25.58
2018-07-06T11:58:09.922Z,25.24
2018-07-06T11:59:09.862Z,25.20
2018-07-06T12:00:09.948Z,25.25
2018-07-06T12:01:09.887Z,25.23
2018-07-06T12:02:09.838Z,25.18
2018-07-06T12:03:09.834Z,25.21
2018-07-06T12:04:09.839Z,25.27
2018-07-06T12:05:09.912Z,25.25
2018-07-06T12:06:09.793Z,25.23
2018-07-06T12:07:09.766Z,25.08
2018-07-06T12:08:09.758Z,25.14
2018-07-06T12:09:09.743Z,25.30
2018-07-06T12:10:10.641Z,25.61
2018-07-06T12:14:49.314Z,26.40
2018-07-06T12:15:49.509Z,26.45
2018-07-06T12:16:49.283Z,26.50
2018-07-06T12:20:18.980Z,25.72
2018-07-06T12:21:21.740Z,25.33
2018-07-06T12:22:18.997Z,25.45
2018-07-06T12:23:20.609Z,25.42
2018-07-06T12:27:10.761Z,25.36
2018-07-06T12:33:09.871Z,26.32
2018-07-06T13:01:54.242Z,26.50
2018-07-06T13:02:54.468Z,26.39
